createdAt,value
2022-12-14T00:00:41.974Z,99747.50
2022-12-14T00:03:10.807Z,99742.63
2022-12-14T00:05:39.399Z,99737.72
2022-12-14T00:08:08.294Z,99741.44
2022-12-14T00:10:38.044Z,99726.91
2022-12-14T00:13:06.860Z,99727.72
2022-12-14T00:15:37.338Z,99720.88
2022-12-14T00:18:07.349Z,99725.19
2022-12-14T00:20:35.597Z,99723.09
2022-12-14T00:23:04.491Z,99715.25
2022-12-14T00:25:33.049Z,99720.72
2022-12-14T00:28:01.441Z,99716.88
2022-12-14T00:30:29.800Z,99727.03
2022-12-14T00:32:58.161Z,99716.81
2022-12-14T00:35:27.996Z,99714.34
2022-12-14T00:37:59.164Z,99714.06
2022-12-14T00:40:29.174Z,99708.94
2022-12-14T00:42:57.523Z,99699.53
2022-12-14T00:45:26.039Z,99702.28
2022-12-14T00:47:54.894Z,99698.13
2022-12-14T00:50:25.393Z,99692.19
2022-12-14T00:52:58.324Z,99686.63
2022-12-14T00:55:26.981Z,99688.38
2022-12-14T00:57:55.419Z,99691.72
2022-12-14T01:00:24.242Z,99690.25
2022-12-14T01:02:52.846Z,99690.97
2022-12-14T01:05:21.348Z,99678.81
2022-12-14T01:07:49.862Z,99679.47
2022-12-14T01:10:19.628Z,99672.28
2022-12-14T01:12:48.007Z,99663.53
2022-12-14T01:15:16.757Z,99670.66
2022-12-14T01:17:45.207Z,99662.19
2022-12-14T01:20:14.113Z,99665.31
2022-12-14T01:22:43.006Z,99669.47
2022-12-14T01:25:11.745Z,99663.47
2022-12-14T01:27:42.075Z,99659.69
2022-12-14T01:30:10.623Z,99660.59
2022-12-14T01:32:38.882Z,99659.53
2022-12-14T01:35:07.294Z,99664.78
2022-12-14T01:37:35.620Z,99661.41
2022-12-14T01:40:04.176Z,99659.66
2022-12-14T01:42:35.224Z,99654.53
2022-12-14T01:45:05.539Z,99650.09
2022-12-14T01:47:39.027Z,99649.50
2022-12-14T01:50:11.515Z,99636.06
2022-12-14T01:52:41.429Z,99624.00
2022-12-14T01:55:11.737Z,99627.47
2022-12-14T01:57:43.417Z,99630.97
2022-12-14T02:00:14.433Z,99634.06
2022-12-14T02:02:48.328Z,99627.09
2022-12-14T02:05:17.989Z,99635.56
2022-12-14T02:07:49.158Z,99630.06
2022-12-14T02:10:18.466Z,99620.31
2022-12-14T02:12:49.505Z,99621.81
2022-12-14T02:15:19.933Z,99619.84
2022-12-14T02:17:48.649Z,99617.50
2022-12-14T02:20:17.822Z,99611.34
2022-12-14T02:23:12.176Z,99601.03
2022-12-14T02:25:52.407Z,99606.09
2022-12-14T02:28:34.501Z,99597.34
2022-12-14T02:31:08.734Z,99597.06
2022-12-14T02:33:42.001Z,99600.84
2022-12-14T02:36:14.687Z,99596.63
2022-12-14T02:38:47.603Z,99592.75
2022-12-14T02:41:18.333Z,99584.16
2022-12-14T02:43:50.856Z,99585.53
2022-12-14T02:46:25.539Z,99584.78
2022-12-14T02:48:57.895Z,99566.13
2022-12-14T02:51:32.358Z,99572.47
2022-12-14T02:54:02.189Z,99569.22
2022-12-14T02:56:34.854Z,99558.94
2022-12-14T02:59:04.838Z,99560.63
2022-12-14T03:01:36.760Z,99554.84
2022-12-14T03:04:05.880Z,99540.44
2022-12-14T03:06:34.118Z,99543.34
2022-12-14T03:09:05.928Z,99544.53
2022-12-14T03:11:37.717Z,99541.31
2022-12-14T03:14:07.768Z,99537.16
2022-12-14T03:16:42.236Z,99539.16
2022-12-14T03:19:15.362Z,99532.56
2022-12-14T03:21:47.403Z,99526.41
2022-12-14T03:24:17.648Z,99536.16
2022-12-14T03:26:48.155Z,99528.41
2022-12-14T03:29:21.605Z,99530.50
2022-12-14T03:31:54.190Z,99522.47
2022-12-14T03:34:26.887Z,99521.31
2022-12-14T03:36:57.776Z,99521.75
2022-12-14T03:39:29.383Z,99511.53
2022-12-14T03:42:01.086Z,99514.19
2022-12-14T03:44:35.565Z,99508.13
2022-12-14T03:47:11.803Z,99528.28
2022-12-14T03:49:49.234Z,99512.56
2022-12-14T03:52:22.846Z,99506.00
2022-12-14T03:54:54.979Z,99504.63
2022-12-14T03:57:33.679Z,99498.56
2022-12-14T04:00:04.220Z,99494.63
2022-12-14T04:02:40.885Z,99487.31
2022-12-14T04:05:17.192Z,99491.94
2022-12-14T04:07:50.168Z,99484.09
2022-12-14T04:10:34.768Z,99484.53
2022-12-14T04:13:25.667Z,99475.13
2022-12-14T04:16:13.608Z,99481.66
2022-12-14T04:19:00.300Z,99468.41
2022-12-14T04:21:32.753Z,99473.50
2022-12-14T04:24:20.539Z,99466.53
2022-12-14T04:26:52.194Z,99465.06
2022-12-14T04:29:44.210Z,99464.59
2022-12-14T04:32:18.301Z,99457.63
2022-12-14T04:34:50.967Z,99461.22
2022-12-14T04:37:21.295Z,99460.28
2022-12-14T04:39:52.163Z,99461.84
2022-12-14T04:42:24.734Z,99472.81
2022-12-14T04:44:54.610Z,99468.16
2022-12-14T04:47:24.895Z,99464.91
2022-12-14T04:49:57.284Z,99470.38
2022-12-14T04:52:27.532Z,99466.22
2022-12-14T04:54:58.975Z,99464.59
2022-12-14T04:57:32.268Z,99456.34
2022-12-14T05:00:02.596Z,99459.94
2022-12-14T05:02:36.539Z,99457.72
2022-12-14T05:05:12.380Z,99465.97
2022-12-14T05:07:48.698Z,99453.09
2022-12-14T05:10:19.361Z,99452.16
2022-12-14T05:12:53.303Z,99454.38
2022-12-14T05:15:24.916Z,99448.00
2022-12-14T05:17:56.622Z,99453.56
2022-12-14T05:20:26.613Z,99445.69
2022-12-14T05:22:55.683Z,99440.00
2022-12-14T05:25:24.280Z,99430.22
2022-12-14T05:27:52.713Z,99421.66
2022-12-14T05:30:21.293Z,99414.69
2022-12-14T05:32:52.184Z,99410.50
2022-12-14T05:35:20.758Z,99408.78
2022-12-14T05:38:00.082Z,99404.47
2022-12-14T05:40:28.709Z,99404.84
2022-12-14T05:43:04.837Z,99394.41
2022-12-14T05:45:33.939Z,99396.56
2022-12-14T05:48:02.340Z,99391.94
2022-12-14T05:50:31.343Z,99394.97
2022-12-14T05:53:01.425Z,99386.25
2022-12-14T05:55:29.760Z,99382.78
2022-12-14T05:57:58.417Z,99388.09
2022-12-14T06:00:27.260Z,99390.56
2022-12-14T06:02:55.743Z,99385.69
2022-12-14T06:05:24.042Z,99387.66
2022-12-14T06:07:52.419Z,99380.47
2022-12-14T06:10:22.279Z,99384.19
2022-12-14T06:12:50.532Z,99382.91
2022-12-14T06:15:18.879Z,99380.72
2022-12-14T06:17:47.687Z,99383.25
2022-12-14T06:20:16.164Z,99373.84
2022-12-14T06:22:47.711Z,99369.81
2022-12-14T06:25:16.317Z,99364.22
2022-12-14T06:27:45.893Z,99367.84
2022-12-14T06:30:14.598Z,99367.81
2022-12-14T06:32:42.865Z,99368.28
2022-12-14T06:35:11.117Z,99365.03
2022-12-14T06:37:39.336Z,99363.06
2022-12-14T06:40:08.295Z,99369.09
2022-12-14T06:42:36.758Z,99365.59
2022-12-14T06:45:07.506Z,99372.22
2022-12-14T06:47:35.983Z,99358.31
2022-12-14T06:50:04.404Z,99363.50
2022-12-14T06:52:32.724Z,99365.25
2022-12-14T06:55:01.127Z,99373.97
2022-12-14T06:57:29.485Z,99370.28
2022-12-14T07:00:00.128Z,99373.16
2022-12-14T07:02:30.679Z,99381.19
2022-12-14T07:04:59.657Z,99380.34
2022-12-14T07:07:27.941Z,99377.56
2022-12-14T07:09:56.538Z,99370.28
2022-12-14T07:12:24.965Z,99373.25
2022-12-14T07:14:53.625Z,99371.75
2022-12-14T07:17:24.652Z,99372.72
2022-12-14T07:19:54.688Z,99379.69
2022-12-14T07:22:23.254Z,99384.75
2022-12-14T07:24:51.862Z,99375.94
2022-12-14T07:27:20.751Z,99373.50
2022-12-14T07:29:54.900Z,99381.97
2022-12-14T07:32:23.826Z,99379.88
2022-12-14T07:34:52.422Z,99388.94
2022-12-14T07:37:22.377Z,99392.88
2022-12-14T07:39:50.796Z,99397.06
2022-12-14T07:42:19.226Z,99398.69
2022-12-14T07:44:47.783Z,99398.59
2022-12-14T07:47:16.789Z,99395.31
2022-12-14T07:49:45.398Z,99388.59
2022-12-14T07:52:21.467Z,99396.97
2022-12-14T07:54:51.475Z,99397.41
2022-12-14T07:57:19.852Z,99394.97
2022-12-14T07:59:52.959Z,99403.56
2022-12-14T08:02:26.185Z,99395.56
2022-12-14T08:04:55.050Z,99398.66
2022-12-14T08:07:32.027Z,99391.13
2022-12-14T08:10:06.315Z,99396.81
2022-12-14T08:12:35.618Z,99391.00
2022-12-14T08:15:06.224Z,99385.78
2022-12-14T08:17:34.867Z,99380.31
2022-12-14T08:20:04.049Z,99386.22
2022-12-14T08:22:32.536Z,99387.75
2022-12-14T08:25:00.959Z,99389.25
2022-12-14T08:27:32.255Z,99384.97
2022-12-14T08:30:00.764Z,99384.84
2022-12-14T08:32:34.138Z,99389.66
2022-12-14T08:35:02.956Z,99392.22
2022-12-14T08:37:31.198Z,99399.19
2022-12-14T08:39:59.513Z,99391.63
2022-12-14T08:42:27.904Z,99390.25
2022-12-14T08:44:57.638Z,99390.34
2022-12-14T08:47:26.180Z,99383.94
2022-12-14T08:49:54.880Z,99403.81
2022-12-14T08:52:23.193Z,99403.59
2022-12-14T08:54:51.593Z,99402.16
2022-12-14T08:57:19.867Z,99395.66
2022-12-14T09:00:03.791Z,99402.66
2022-12-14T09:02:34.006Z,99411.06
2022-12-14T09:05:02.392Z,99405.13
2022-12-14T09:07:30.692Z,99410.34
2022-12-14T09:09:58.991Z,99418.13
2022-12-14T09:12:27.456Z,99414.25
2022-12-14T09:14:55.958Z,99416.63
2022-12-14T09:17:24.281Z,99413.47
2022-12-14T09:19:54.029Z,99418.69
2022-12-14T09:22:22.349Z,99416.19
2022-12-14T09:24:52.209Z,99410.59
2022-12-14T09:27:22.371Z,99411.81
2022-12-14T09:29:50.732Z,99413.34
2022-12-14T09:32:19.408Z,99410.28
2022-12-14T09:34:47.748Z,99408.84
2022-12-14T09:37:17.419Z,99409.09
2022-12-14T09:39:46.116Z,99402.56
2022-12-14T09:42:26.504Z,99407.63
2022-12-14T09:44:58.591Z,99403.00
2022-12-14T09:47:30.660Z,99400.84
2022-12-14T09:50:01.834Z,99399.78
2022-12-14T09:52:36.493Z,99394.53
2022-12-14T09:55:06.668Z,99395.97
2022-12-14T09:57:37.917Z,99405.00
2022-12-14T10:00:12.633Z,99402.44
2022-12-14T10:02:48.853Z,99396.09
2022-12-14T10:05:25.554Z,99392.53
2022-12-14T10:08:02.642Z,99385.06
2022-12-14T10:10:33.889Z,99394.59
2022-12-14T10:13:07.511Z,99382.13
2022-12-14T10:15:41.219Z,99392.50
2022-12-14T10:18:59.412Z,99378.91
2022-12-14T10:21:36.839Z,99380.94
2022-12-14T10:24:08.050Z,99373.94
2022-12-14T10:26:39.243Z,99372.72
2022-12-14T10:29:14.608Z,99370.88
2022-12-14T10:31:49.026Z,99377.75
2022-12-14T10:34:19.586Z,99378.19
2022-12-14T10:36:53.106Z,99372.81
2022-12-14T10:39:27.563Z,99375.53
2022-12-14T10:41:59.130Z,99380.31
2022-12-14T10:44:35.582Z,99375.72
2022-12-14T10:47:11.782Z,99377.44
2022-12-14T10:49:47.190Z,99370.03
2022-12-14T10:52:18.821Z,99364.94
2022-12-14T10:54:50.767Z,99361.78
2022-12-14T10:57:19.661Z,99352.34
2022-12-14T11:00:05.545Z,99358.97
2022-12-14T11:02:37.844Z,99365.91
2022-12-14T11:05:17.804Z,99371.53
2022-12-14T11:07:49.668Z,99367.59
2022-12-14T11:10:20.661Z,99368.16
2022-12-14T11:12:56.033Z,99360.91
2022-12-14T11:15:27.013Z,99369.22
2022-12-14T11:18:00.916Z,99358.88
2022-12-14T11:20:29.548Z,99350.16
2022-12-14T11:22:58.970Z,99356.66
2022-12-14T11:25:31.002Z,99354.03
2022-12-14T11:27:59.952Z,99362.69
2022-12-14T11:30:29.012Z,99362.66
2022-12-14T11:32:57.523Z,99354.22
2022-12-14T11:35:25.848Z,99354.81
2022-12-14T11:37:59.086Z,99357.34
2022-12-14T11:40:30.841Z,99358.25
2022-12-14T11:43:02.629Z,99354.34
2022-12-14T11:45:32.759Z,99348.44
2022-12-14T11:48:20.985Z,99348.75
2022-12-14T11:50:51.100Z,99361.47
2022-12-14T11:53:20.309Z,99362.84
2022-12-14T11:55:53.499Z,99366.31
2022-12-14T11:58:23.699Z,99368.53
2022-12-14T12:00:53.464Z,99368.44
2022-12-14T12:03:24.816Z,99369.38
2022-12-14T12:05:54.993Z,99371.91
2022-12-14T12:08:26.157Z,99367.72
2022-12-14T12:11:01.797Z,99367.97
2022-12-14T12:13:32.309Z,99366.47
2022-12-14T12:16:01.649Z,99357.75
2022-12-14T12:18:34.025Z,99362.50
2022-12-14T12:21:06.939Z,99359.13
2022-12-14T12:23:38.968Z,99369.22
2022-12-14T12:26:12.825Z,99360.13
2022-12-14T12:28:44.862Z,99355.88
2022-12-14T12:31:17.717Z,99360.28
2022-12-14T12:33:49.580Z,99356.88
2022-12-14T12:36:24.122Z,99353.16
2022-12-14T12:38:57.839Z,99353.72
2022-12-14T12:41:31.156Z,99359.84
2022-12-14T12:44:01.908Z,99357.03
2022-12-14T12:46:31.920Z,99363.84
2022-12-14T12:49:04.816Z,99361.50
2022-12-14T12:51:36.201Z,99355.44
2022-12-14T12:54:08.373Z,99352.09
2022-12-14T12:56:43.350Z,99360.56
2022-12-14T12:59:16.538Z,99358.59
2022-12-14T13:01:48.728Z,99353.91
2022-12-14T13:04:25.672Z,99360.19
2022-12-14T13:06:55.818Z,99359.59
2022-12-14T13:09:31.010Z,99360.91
2022-12-14T13:12:01.603Z,99356.91
2022-12-14T13:14:33.200Z,99359.53
2022-12-14T13:17:03.981Z,99364.19
2022-12-14T13:19:54.861Z,99363.84
2022-12-14T13:22:26.815Z,99361.81
2022-12-14T13:24:59.498Z,99359.63
2022-12-14T13:27:43.444Z,99359.97
2022-12-14T13:30:26.259Z,99367.34
2022-12-14T13:33:05.759Z,99373.72
2022-12-14T13:35:40.633Z,99374.38
2022-12-14T13:38:20.659Z,99370.91
2022-12-14T13:41:03.266Z,99369.66
2022-12-14T13:43:52.815Z,99362.09
2022-12-14T13:46:23.772Z,99368.16
2022-12-14T13:48:54.062Z,99360.47
2022-12-14T13:51:28.178Z,99358.84
2022-12-14T13:53:59.200Z,99370.09
2022-12-14T13:56:33.331Z,99375.44
2022-12-14T13:59:04.028Z,99373.81
2022-12-14T14:01:50.890Z,99376.50
2022-12-14T14:04:21.602Z,99382.50
2022-12-14T14:06:50.485Z,99375.63
2022-12-14T14:09:37.287Z,99378.19
2022-12-14T14:12:25.824Z,99384.13
2022-12-14T14:14:58.326Z,99389.78
2022-12-14T14:17:29.095Z,99388.94
2022-12-14T14:19:58.981Z,99390.78
2022-12-14T14:22:28.170Z,99395.38
2022-12-14T14:24:58.140Z,99388.75
2022-12-14T14:27:27.563Z,99389.63
2022-12-14T14:29:56.825Z,99391.50
2022-12-14T14:32:33.197Z,99395.78
2022-12-14T14:35:04.031Z,99392.28
2022-12-14T14:37:33.564Z,99393.78
2022-12-14T14:40:16.686Z,99393.97
2022-12-14T14:42:52.463Z,99392.34
2022-12-14T14:45:28.194Z,99390.00
2022-12-14T14:47:57.463Z,99401.03
2022-12-14T14:50:30.411Z,99401.19
2022-12-14T14:53:16.928Z,99405.72
2022-12-14T14:56:05.041Z,99407.09
2022-12-14T14:58:38.393Z,99403.69
2022-12-14T15:01:19.162Z,99410.41
2022-12-14T15:03:51.832Z,99406.84
2022-12-14T15:06:24.173Z,99412.50
2022-12-14T15:08:56.892Z,99421.06
2022-12-14T15:11:26.722Z,99433.47
2022-12-14T15:13:59.290Z,99428.47
2022-12-14T15:16:33.120Z,99435.00
2022-12-14T15:19:33.814Z,99428.97
2022-12-14T15:22:06.286Z,99440.06
2022-12-14T15:24:38.438Z,99424.50
2022-12-14T15:27:12.675Z,99427.66
2022-12-14T15:29:41.346Z,99422.94
2022-12-14T15:32:16.162Z,99435.38
2022-12-14T15:34:50.004Z,99436.88
2022-12-14T15:37:25.139Z,99440.59
2022-12-14T15:40:03.166Z,99447.13
2022-12-14T15:42:31.633Z,99445.38
2022-12-14T15:45:03.404Z,99447.56
2022-12-14T15:47:33.453Z,99446.78
2022-12-14T15:50:16.647Z,99443.50
2022-12-14T15:52:47.130Z,99447.94
2022-12-14T15:55:23.741Z,99447.81
2022-12-14T15:57:52.968Z,99454.06
2022-12-14T16:00:21.360Z,99450.69
2022-12-14T16:02:49.873Z,99458.16
2022-12-14T16:05:20.262Z,99452.44
2022-12-14T16:07:52.556Z,99461.97
2022-12-14T16:10:24.041Z,99450.56
2022-12-14T16:12:54.865Z,99458.34
2022-12-14T16:15:24.906Z,99460.44
2022-12-14T16:18:00.946Z,99461.34
2022-12-14T16:20:31.814Z,99462.97
2022-12-14T16:23:03.275Z,99467.47
2022-12-14T16:25:33.435Z,99475.56
2022-12-14T16:28:19.890Z,99472.31
2022-12-14T16:30:55.581Z,99480.56
2022-12-14T16:33:24.432Z,99483.09
2022-12-14T16:36:00.914Z,99481.09
2022-12-14T16:38:31.224Z,99489.47
2022-12-14T16:41:00.436Z,99488.13
2022-12-14T16:43:34.041Z,99500.56
2022-12-14T16:46:20.711Z,99508.19
2022-12-14T16:49:04.030Z,99503.53
2022-12-14T16:54:25.971Z,99498.94
2022-12-14T16:56:59.493Z,99491.03
2022-12-14T16:59:29.634Z,99497.66
2022-12-14T17:01:58.247Z,99506.78
2022-12-14T17:04:32.702Z,99505.97
2022-12-14T17:07:01.364Z,99511.28
2022-12-14T17:09:33.880Z,99517.88
2022-12-14T17:12:03.675Z,99518.25
2022-12-14T17:14:32.233Z,99526.72
2022-12-14T17:17:02.324Z,99523.31
2022-12-14T17:19:34.765Z,99524.56
2022-12-14T17:22:06.107Z,99523.31
2022-12-14T17:24:38.183Z,99523.81
2022-12-14T17:27:06.757Z,99530.06
2022-12-14T17:29:37.127Z,99528.88
2022-12-14T17:32:05.727Z,99532.66
2022-12-14T17:34:34.220Z,99524.88
2022-12-14T17:37:02.493Z,99532.66
2022-12-14T17:39:52.874Z,99533.91
2022-12-14T17:42:23.505Z,99533.91
2022-12-14T17:44:53.576Z,99542.13
2022-12-14T17:47:22.529Z,99539.72
2022-12-14T17:49:50.808Z,99541.06
2022-12-14T17:52:20.807Z,99543.59
2022-12-14T17:54:49.370Z,99541.34
2022-12-14T17:57:18.607Z,99546.53
2022-12-14T17:59:48.928Z,99545.72
2022-12-14T18:02:26.282Z,99545.50
2022-12-14T18:04:55.205Z,99544.91
2022-12-14T18:07:23.515Z,99551.03
2022-12-14T18:09:53.372Z,99554.50
2022-12-14T18:12:25.763Z,99559.69
2022-12-14T18:14:55.491Z,99551.78
2022-12-14T18:17:24.076Z,99553.75
2022-12-14T18:19:52.377Z,99548.72
2022-12-14T18:22:23.286Z,99558.66
2022-12-14T18:24:54.796Z,99563.75
2022-12-14T18:27:23.030Z,99566.78
2022-12-14T18:29:51.364Z,99564.84
2022-12-14T18:32:21.049Z,99559.25
2022-12-14T18:34:49.349Z,99553.75
2022-12-14T18:37:23.229Z,99544.59
2022-12-14T18:39:53.089Z,99546.31
2022-12-14T18:42:22.731Z,99547.50
2022-12-14T18:44:52.064Z,99557.41
2022-12-14T18:47:41.088Z,99561.78
2022-12-14T18:50:10.735Z,99570.34
2022-12-14T18:52:38.978Z,99576.91
2022-12-14T18:55:08.068Z,99584.50
2022-12-14T18:57:36.342Z,99581.88
2022-12-14T19:00:05.257Z,99581.88
2022-12-14T19:02:35.646Z,99581.50
2022-12-14T19:05:04.412Z,99584.00
2022-12-14T19:07:33.210Z,99579.53
2022-12-14T19:10:01.708Z,99588.13
2022-12-14T19:12:30.106Z,99583.22
2022-12-14T19:14:58.720Z,99587.97
2022-12-14T19:17:26.986Z,99593.03
2022-12-14T19:19:56.773Z,99590.19
2022-12-14T19:22:27.298Z,99585.31
2022-12-14T19:24:55.907Z,99597.88
2022-12-14T19:27:50.844Z,99596.66
2022-12-14T19:30:14.667Z,99594.41
2022-12-14T19:32:43.428Z,99596.66
2022-12-14T19:35:17.847Z,99611.16
2022-12-14T19:37:46.543Z,99604.25
2022-12-14T19:40:15.065Z,99608.56
2022-12-14T19:42:43.684Z,99611.22
2022-12-14T19:45:12.334Z,99614.72
2022-12-14T19:47:41.003Z,99617.81
2022-12-14T19:50:09.589Z,99610.88
2022-12-14T19:52:39.192Z,99619.00
2022-12-14T19:55:08.072Z,99612.50
2022-12-14T19:57:36.563Z,99625.13
2022-12-14T20:00:05.746Z,99622.69
2022-12-14T20:02:34.264Z,99623.34
2022-12-14T20:05:02.787Z,99619.66
2022-12-14T20:07:31.249Z,99627.84
2022-12-14T20:10:00.978Z,99619.06
2022-12-14T20:12:32.429Z,99621.94
2022-12-14T20:15:01.118Z,99621.94
2022-12-14T20:17:29.526Z,99625.63
2022-12-14T20:19:59.305Z,99619.69
2022-12-14T20:22:27.921Z,99624.81
2022-12-14T20:24:56.276Z,99629.31
2022-12-14T20:27:26.383Z,99639.13
2022-12-14T20:29:55.043Z,99644.22
2022-12-14T20:32:23.751Z,99649.94
2022-12-14T20:34:52.163Z,99661.63
2022-12-14T20:37:21.548Z,99663.66
2022-12-14T20:39:50.330Z,99658.97
2022-12-14T20:42:21.443Z,99668.53
2022-12-14T20:44:51.543Z,99671.00
2022-12-14T20:47:19.935Z,99680.41
2022-12-14T20:49:48.249Z,99688.19
2022-12-14T20:52:17.170Z,99679.78
2022-12-14T20:54:45.455Z,99689.22
2022-12-14T20:57:14.289Z,99693.72
2022-12-14T20:59:42.627Z,99682.88
2022-12-14T21:02:16.920Z,99682.47
2022-12-14T21:04:45.731Z,99678.38
2022-12-14T21:07:14.023Z,99687.78
2022-12-14T21:09:42.519Z,99689.00
2022-12-14T21:12:23.503Z,99693.88
2022-12-14T21:14:53.038Z,99695.53
2022-12-14T21:17:23.891Z,99703.09
2022-12-14T21:19:55.878Z,99700.84
2022-12-14T21:22:25.157Z,99700.44
2022-12-14T21:25:09.031Z,99709.84
2022-12-14T21:27:42.992Z,99713.13
2022-12-14T21:30:12.416Z,99714.75
2022-12-14T21:32:42.128Z,99713.53
2022-12-14T21:35:10.678Z,99712.91
2022-12-14T21:37:39.741Z,99715.97
2022-12-14T21:40:29.102Z,99720.88
2022-12-14T21:42:56.825Z,99720.44
2022-12-14T21:45:25.430Z,99714.13
2022-12-14T21:47:57.714Z,99710.66
2022-12-14T21:50:26.154Z,99712.28
2022-12-14T21:52:54.525Z,99711.06
2022-12-14T21:55:23.252Z,99705.53
2022-12-14T21:58:11.625Z,99712.06
2022-12-14T22:00:40.231Z,99704.50
2022-12-14T22:03:10.073Z,99712.88
2022-12-14T22:05:39.162Z,99720.22
2022-12-14T22:08:07.593Z,99716.34
2022-12-14T22:10:35.833Z,99717.56
2022-12-14T22:13:04.231Z,99714.72
2022-12-14T22:15:32.789Z,99714.72
2022-12-14T22:18:01.032Z,99713.28
2022-12-14T22:20:30.694Z,99720.66
2022-12-14T22:22:59.996Z,99729.03
2022-12-14T22:25:28.434Z,99730.66
2022-12-14T22:27:57.373Z,99743.31
2022-12-14T22:30:31.651Z,99723.09
2022-12-14T22:33:00.659Z,99729.81
2022-12-14T22:35:28.903Z,99736.34
2022-12-14T22:37:59.845Z,99721.84
2022-12-14T22:40:28.472Z,99730.63
2022-12-14T22:42:56.741Z,99726.38
2022-12-14T22:45:25.132Z,99731.44
2022-12-14T22:47:53.387Z,99735.94
2022-12-14T22:50:21.807Z,99740.63
2022-12-14T22:52:50.294Z,99744.06
2022-12-14T22:55:20.082Z,99748.38
2022-12-14T22:57:48.740Z,99743.09
2022-12-14T23:00:18.010Z,99742.88
2022-12-14T23:03:00.544Z,99741.66
2022-12-14T23:05:29.545Z,99743.28
2022-12-14T23:07:58.209Z,99745.72
2022-12-14T23:10:45.545Z,99751.66
2022-12-14T23:13:36.249Z,99747.34
2022-12-14T23:16:22.832Z,99745.72
2022-12-14T23:19:09.733Z,99744.72
2022-12-14T23:21:56.603Z,99742.88
2022-12-14T23:24:42.642Z,99754.28
2022-12-14T23:27:30.589Z,99752.66
2022-12-14T23:30:16.736Z,99756.56
2022-12-14T23:33:02.522Z,99760.00
2022-12-14T23:35:48.250Z,99759.63
2022-12-14T23:38:34.625Z,99768.16
2022-12-14T23:41:20.751Z,99780.03
2022-12-14T23:44:08.171Z,99778.00
2022-12-14T23:46:54.424Z,99781.88
2022-12-14T23:49:43.507Z,99774.91
2022-12-14T23:52:30.131Z,99782.06
2022-12-14T23:55:16.330Z,99777.34
2022-12-14T23:58:02.016Z,99782.47
